createdAt,value
2017-09-17T00:00:21.690Z,69.14
2017-09-17T00:05:23.887Z,68.74
2017-09-17T00:10:26.607Z,68.49
2017-09-17T00:15:28.626Z,68.44
2017-09-17T00:20:31.044Z,68.37
2017-09-17T00:25:33.478Z,68.16
2017-09-17T00:30:35.526Z,68.00
2017-09-17T00:35:38.002Z,68.40
2017-09-17T00:40:40.063Z,68.32
2017-09-17T00:45:42.069Z,68.44
2017-09-17T00:50:45.176Z,68.58
2017-09-17T00:55:47.217Z,68.85
2017-09-17T01:00:49.268Z,69.01
2017-09-17T01:05:53.264Z,69.02
2017-09-17T01:10:56.085Z,69.29
2017-09-17T01:15:58.223Z,69.19
2017-09-17T01:21:01.039Z,69.17
2017-09-17T01:26:02.998Z,69.59
2017-09-17T01:31:05.014Z,69.67
2017-09-17T01:36:07.017Z,69.75
2017-09-17T01:41:09.715Z,69.95
2017-09-17T01:46:11.676Z,70.21
2017-09-17T01:51:13.646Z,70.40
2017-09-17T01:56:15.698Z,70.34
2017-09-17T02:01:17.704Z,70.22
2017-09-17T02:06:19.762Z,70.24
2017-09-17T02:11:21.815Z,70.46
2017-09-17T02:16:23.793Z,70.54
2017-09-17T02:21:25.800Z,70.42
2017-09-17T02:26:27.884Z,70.46
2017-09-17T02:31:29.865Z,70.57
2017-09-17T02:36:31.974Z,70.54
2017-09-17T02:41:33.999Z,70.74
2017-09-17T02:46:35.989Z,70.57
2017-09-17T02:51:37.972Z,70.44
2017-09-17T02:56:39.952Z,70.31
2017-09-17T03:01:41.919Z,70.57
2017-09-17T03:06:43.887Z,70.36
2017-09-17T03:11:45.916Z,69.82
2017-09-17T03:16:47.978Z,69.94
2017-09-17T03:21:49.966Z,69.87
2017-09-17T03:26:52.638Z,69.85
2017-09-17T03:31:55.419Z,69.77
2017-09-17T03:36:57.450Z,69.67
2017-09-17T03:41:59.507Z,69.65
2017-09-17T03:47:01.552Z,69.37
2017-09-17T03:52:03.566Z,69.36
2017-09-17T03:57:05.540Z,69.27
2017-09-17T04:02:08.360Z,69.45
2017-09-17T04:07:10.376Z,69.71
2017-09-17T04:12:12.379Z,70.06
2017-09-17T04:17:14.427Z,70.48
2017-09-17T04:22:16.509Z,70.86
2017-09-17T04:27:18.533Z,70.70
2017-09-17T04:32:20.515Z,70.86
2017-09-17T04:37:22.786Z,70.69
2017-09-17T04:42:24.781Z,70.62
2017-09-17T04:47:26.798Z,70.77
2017-09-17T04:52:28.821Z,70.34
2017-09-17T04:57:30.820Z,70.45
2017-09-17T05:02:32.827Z,70.50
2017-09-17T05:07:34.820Z,70.85
2017-09-17T05:12:36.879Z,71.02
2017-09-17T05:17:38.907Z,70.95
2017-09-17T05:22:40.873Z,70.80
2017-09-17T05:27:42.890Z,70.63
2017-09-17T05:32:44.859Z,70.31
2017-09-17T05:37:47.020Z,70.42
2017-09-17T05:42:49.745Z,70.45
2017-09-17T05:47:51.724Z,70.54
2017-09-17T05:52:53.720Z,70.77
2017-09-17T05:57:55.702Z,70.73
2017-09-17T06:02:57.662Z,70.93
2017-09-17T06:07:59.682Z,70.78
2017-09-17T06:13:01.653Z,70.80
2017-09-17T06:18:03.933Z,70.64
2017-09-17T06:23:06.014Z,70.14
2017-09-17T06:28:11.077Z,69.91
2017-09-17T06:33:13.028Z,69.53
2017-09-17T06:38:15.134Z,69.12
2017-09-17T06:43:17.202Z,68.70
2017-09-17T06:48:19.313Z,68.70
2017-09-17T06:53:22.051Z,68.32
2017-09-17T06:58:24.181Z,68.19
2017-09-17T07:03:26.208Z,67.91
2017-09-17T07:08:29.420Z,67.57
2017-09-17T07:13:31.628Z,67.03
2017-09-17T07:18:33.640Z,66.21
2017-09-17T07:23:35.762Z,65.36
2017-09-17T07:28:37.721Z,64.33
2017-09-17T07:33:40.245Z,63.29
2017-09-17T07:38:42.384Z,62.98
2017-09-17T07:43:53.069Z,63.23
2017-09-17T07:48:56.439Z,63.04
2017-09-17T07:53:58.616Z,62.14
2017-09-17T07:59:01.029Z,61.31
2017-09-17T08:04:03.611Z,60.61
2017-09-17T08:09:05.850Z,60.87
2017-09-17T08:14:08.443Z,61.15
2017-09-17T08:19:10.712Z,61.44
2017-09-17T08:24:12.802Z,61.11
2017-09-17T08:29:14.804Z,60.66
2017-09-17T08:34:16.864Z,60.26
2017-09-17T08:39:18.860Z,60.20
2017-09-17T08:44:20.857Z,59.27
2017-09-17T08:49:22.859Z,58.45
2017-09-17T08:54:24.857Z,58.15
2017-09-17T08:59:26.799Z,57.38
2017-09-17T09:04:28.841Z,57.61
2017-09-17T09:09:30.851Z,57.40
2017-09-17T09:14:32.828Z,57.65
2017-09-17T09:19:35.539Z,57.84
2017-09-17T09:24:37.631Z,58.27
2017-09-17T09:29:39.601Z,58.12
2017-09-17T09:34:41.570Z,57.42
2017-09-17T09:39:43.521Z,56.78
2017-09-17T09:44:51.543Z,56.23
2017-09-17T09:49:53.536Z,56.11
2017-09-17T09:54:55.480Z,55.43
2017-09-17T09:59:57.490Z,54.47
2017-09-17T10:04:59.438Z,52.93
2017-09-17T10:10:01.376Z,51.86
2017-09-17T10:15:03.419Z,51.42
2017-09-17T10:20:07.430Z,50.53
2017-09-17T10:25:09.485Z,50.66
2017-09-17T10:30:12.129Z,51.12
2017-09-17T10:35:14.080Z,51.14
2017-09-17T10:40:16.159Z,50.22
2017-09-17T10:45:18.092Z,49.03
2017-09-17T10:50:20.073Z,48.43
2017-09-17T10:55:22.154Z,47.87
2017-09-17T11:00:24.852Z,47.42
2017-09-17T11:05:26.964Z,47.90
2017-09-17T11:10:30.008Z,47.63
2017-09-17T11:15:31.980Z,47.16
2017-09-17T11:20:34.696Z,46.28
2017-09-17T11:25:36.668Z,45.71
2017-09-17T11:30:38.599Z,45.82
2017-09-17T11:35:40.535Z,45.92
2017-09-17T11:40:42.477Z,44.22
2017-09-17T11:45:44.551Z,46.21
2017-09-17T11:50:46.692Z,46.39
2017-09-17T11:55:48.690Z,46.37
2017-09-17T12:00:51.393Z,44.54
2017-09-17T12:05:53.373Z,45.95
2017-09-17T12:10:55.372Z,45.42
2017-09-17T12:15:58.114Z,45.22
2017-09-17T12:21:00.265Z,44.94
2017-09-17T12:26:02.245Z,44.08
2017-09-17T12:31:04.289Z,42.87
2017-09-17T12:36:06.359Z,42.64
2017-09-17T12:41:08.434Z,43.24
2017-09-17T12:46:14.156Z,42.18
2017-09-17T12:51:16.124Z,43.21
2017-09-17T12:56:18.839Z,44.10
2017-09-17T13:01:20.923Z,44.34
2017-09-17T13:06:22.887Z,44.00
2017-09-17T13:11:24.964Z,43.78
2017-09-17T13:16:27.234Z,43.75
2017-09-17T13:21:29.948Z,44.22
2017-09-17T13:26:32.013Z,45.00
2017-09-17T13:31:34.753Z,45.95
2017-09-17T13:36:36.811Z,47.07
2017-09-17T13:41:38.802Z,47.56
2017-09-17T13:46:40.813Z,47.33
2017-09-17T13:51:42.814Z,47.64
2017-09-17T13:56:44.835Z,48.48
2017-09-17T14:02:04.672Z,50.48
2017-09-17T14:07:11.274Z,52.96
2017-09-17T14:12:14.043Z,53.56
2017-09-17T14:17:16.787Z,52.57
2017-09-17T14:22:20.075Z,50.87
2017-09-17T14:27:22.240Z,48.31
2017-09-17T14:32:24.669Z,45.28
2017-09-17T14:37:26.831Z,44.46
2017-09-17T14:42:31.303Z,43.90
2017-09-17T14:47:33.464Z,41.12
2017-09-17T14:52:35.507Z,40.90
2017-09-17T14:57:37.465Z,42.25
2017-09-17T15:02:39.592Z,43.07
2017-09-17T15:07:41.544Z,43.80
2017-09-17T15:12:44.687Z,43.58
2017-09-17T15:17:47.417Z,42.69
2017-09-17T15:22:49.411Z,41.81
2017-09-17T15:27:51.402Z,41.71
2017-09-17T15:32:53.427Z,42.37
2017-09-17T15:37:55.435Z,43.35
2017-09-17T15:42:57.392Z,43.87
2017-09-17T15:47:59.460Z,44.40
2017-09-17T15:53:01.443Z,44.96
2017-09-17T15:58:03.431Z,46.02
2017-09-17T16:03:06.195Z,47.37
2017-09-17T16:08:08.273Z,48.55
2017-09-17T16:13:10.252Z,49.83
2017-09-17T16:18:12.225Z,51.16
2017-09-17T16:23:14.269Z,52.60
2017-09-17T16:28:16.215Z,53.50
2017-09-17T16:33:18.930Z,53.05
2017-09-17T16:38:20.980Z,53.55
2017-09-17T16:43:23.461Z,55.43
2017-09-17T16:48:25.894Z,56.18
2017-09-17T16:53:27.931Z,56.77
2017-09-17T16:58:29.919Z,57.32
2017-09-17T17:03:32.273Z,58.03
2017-09-17T17:08:34.814Z,58.91
2017-09-17T17:13:36.957Z,59.32
2017-09-17T17:18:40.235Z,60.12
2017-09-17T17:23:45.403Z,60.41
2017-09-17T17:28:48.960Z,60.73
2017-09-17T17:33:51.717Z,61.29
2017-09-17T17:38:56.131Z,61.77
2017-09-17T17:43:58.528Z,62.07
2017-09-17T17:49:00.639Z,62.40
2017-09-17T17:54:05.725Z,63.13
2017-09-17T17:59:08.497Z,63.57
2017-09-17T18:04:11.421Z,63.81
2017-09-17T18:09:16.158Z,63.88
2017-09-17T18:14:19.430Z,64.64
2017-09-17T18:19:21.544Z,64.54
2017-09-17T18:24:23.515Z,64.89
2017-09-17T18:29:25.598Z,64.92
2017-09-17T18:34:27.691Z,66.04
2017-09-17T18:39:31.579Z,66.47
2017-09-17T18:44:36.274Z,65.80
2017-09-17T18:49:38.948Z,66.80
2017-09-17T18:54:41.275Z,66.58
2017-09-17T18:59:43.297Z,66.71
2017-09-17T19:04:45.528Z,66.21
2017-09-17T19:09:47.600Z,66.71
2017-09-17T19:14:49.633Z,67.18
2017-09-17T19:19:51.618Z,68.00
2017-09-17T19:24:55.743Z,67.54
2017-09-17T19:29:57.909Z,67.31
2017-09-17T19:35:00.225Z,67.59
2017-09-17T19:40:03.924Z,67.43
2017-09-17T19:45:06.429Z,67.36
2017-09-17T19:50:08.942Z,67.35
2017-09-17T19:55:11.273Z,67.20
2017-09-17T20:00:13.288Z,67.35
2017-09-17T20:05:15.287Z,67.58
2017-09-17T20:10:17.326Z,67.45
2017-09-17T20:15:19.281Z,67.26
2017-09-17T20:20:21.322Z,67.23
2017-09-17T20:25:24.048Z,67.40
2017-09-17T20:30:26.034Z,67.78
2017-09-17T20:35:28.043Z,69.01
2017-09-17T20:40:30.027Z,71.02
2017-09-17T20:45:32.035Z,70.95
2017-09-17T20:50:34.024Z,71.46
2017-09-17T20:55:36.866Z,70.92
2017-09-17T21:00:38.838Z,69.68
2017-09-17T21:05:42.170Z,69.64
2017-09-17T21:10:44.149Z,69.34
2017-09-17T21:15:46.900Z,69.45
2017-09-17T21:20:48.935Z,69.94
2017-09-17T21:25:50.947Z,69.87
2017-09-17T21:30:52.959Z,70.03
2017-09-17T21:35:55.331Z,69.19
2017-09-17T21:40:58.186Z,69.34
2017-09-17T21:46:00.524Z,70.17
2017-09-17T21:51:02.886Z,70.43
2017-09-17T21:56:05.124Z,70.33
2017-09-17T22:01:07.219Z,70.00
2017-09-17T22:06:09.284Z,69.72
2017-09-17T22:11:12.037Z,70.29
2017-09-17T22:16:14.049Z,70.17
2017-09-17T22:21:16.059Z,69.80
2017-09-17T22:26:18.067Z,69.24
2017-09-17T22:31:20.079Z,70.38
2017-09-17T22:36:22.118Z,70.55
2017-09-17T22:41:24.127Z,70.28
2017-09-17T22:46:26.081Z,70.48
2017-09-17T22:51:28.792Z,70.87
2017-09-17T22:56:30.744Z,70.53
2017-09-17T23:01:32.739Z,70.58
2017-09-17T23:06:35.631Z,70.72
2017-09-17T23:11:37.633Z,71.05
2017-09-17T23:16:39.667Z,71.11
2017-09-17T23:21:41.652Z,70.25
2017-09-17T23:26:43.616Z,70.40
2017-09-17T23:31:45.606Z,69.62
2017-09-17T23:36:47.623Z,70.27
2017-09-17T23:41:49.627Z,71.02
2017-09-17T23:46:52.268Z,70.80
2017-09-17T23:51:54.908Z,70.98
2017-09-17T23:56:56.861Z,70.83
